Time;durP1;ratioP1;P1;durP2;ratioP2;P2;SDS_P1;SDS_P2;PMS_P1;PMS_P2;Temp;Humidity;BMP_temperature;BMP_pressure;BME280_temperature;BME280_humidity;BME280_pressure;Samples;Min_cycle;Max_cycle;Signal;HPM_P1;HPM_P2
2022/03/14 00:00:08;;;;;;;;;18.00;17.67;;;;;21.63;40.45;102189.83;110435;1261;18680;-48
2022/03/14 00:02:55;;;;;;;;;20.00;20.00;;;;;21.64;40.40;102190.61;110362;1262;19467;-47
2022/03/14 00:05:28;;;;;;;;;20.00;20.00;;;;;21.63;40.31;102191.96;110455;1262;19530;-47
2022/03/14 00:07:55;;;;;;;;;23.33;20.33;;;;;21.64;40.55;102191.89;110354;1262;18723;-48
2022/03/14 00:10:22;;;;;;;;;21.00;20.00;;;;;21.63;40.40;102191.27;110410;1262;18841;-48
2022/03/14 00:12:51;;;;;;;;;19.33;17.33;;;;;21.64;40.26;102193.90;110344;1262;19694;-51
2022/03/14 00:15:18;;;;;;;;;19.67;18.67;;;;;21.63;40.40;102194.67;110386;1262;18723;-49
2022/03/14 00:17:47;;;;;;;;;21.67;21.00;;;;;21.63;40.47;102197.44;110481;1261;19081;-49
2022/03/14 00:20:15;;;;;;;;;19.00;16.50;;;;;21.60;40.13;102189.52;110362;1261;20083;-49
2022/03/14 00:22:43;;;;;;;;;20.50;20.50;;;;;21.62;40.13;102192.24;110358;1262;18750;-50
2022/03/14 00:25:10;;;;;;;;;18.67;17.33;;;;;21.62;40.16;102191.02;110380;1261;22104;-49
2022/03/14 00:27:38;;;;;;;;;21.33;21.00;;;;;21.60;40.28;102186.02;110387;1261;19591;-48
2022/03/14 00:30:05;;;;;;;;;22.00;21.00;;;;;21.62;39.98;102189.00;110240;1262;21289;-47
2022/03/14 00:32:32;;;;;;;;;20.00;16.67;;;;;21.61;40.09;102188.89;110465;1262;18764;-48
2022/03/14 00:34:59;;;;;;;;;22.00;21.00;;;;;21.61;39.97;102187.42;110418;1261;19593;-48
2022/03/14 00:37:27;;;;;;;;;21.00;20.67;;;;;21.61;40.05;102185.76;110399;1262;18719;-48
2022/03/14 00:39:54;;;;;;;;;18.00;17.00;;;;;21.61;40.03;102187.05;110458;1262;22482;-49
2022/03/14 00:42:22;;;;;;;;;24.33;21.67;;;;;21.61;40.02;102189.77;110427;1261;19538;-50
2022/03/14 00:44:49;;;;;;;;;21.00;18.67;;;;;21.60;40.05;102186.20;110468;1261;18769;-48
2022/03/14 00:47:16;;;;;;;;;24.00;18.67;;;;;21.61;40.10;102187.42;110438;1262;18934;-49
2022/03/14 00:49:44;;;;;;;;;20.00;18.00;;;;;21.61;39.85;102188.55;110395;1262;19566;-48
2022/03/14 00:52:11;;;;;;;;;20.50;20.00;;;;;21.61;39.76;102189.27;110398;1262;19216;-49
2022/03/14 00:54:38;;;;;;;;;22.00;21.00;;;;;21.61;39.85;102195.20;110424;1261;18916;-49
2022/03/14 00:57:06;;;;;;;;;20.33;18.00;;;;;21.62;39.91;102193.64;110366;1261;21502;-48
2022/03/14 00:59:34;;;;;;;;;21.00;21.00;;;;;21.62;39.85;102193.53;110440;1261;18777;-48
2022/03/14 01:02:01;;;;;;;;;25.33;22.33;;;;;21.62;39.84;102192.98;110375;1262;18900;-49
2022/03/14 01:04:28;;;;;;;;;20.00;18.00;;;;;21.62;39.92;102199.54;110403;1261;19666;-49
2022/03/14 01:06:56;;;;;;;;;22.00;18.67;;;;;21.62;39.78;102203.70;110398;1262;20997;-49
2022/03/14 01:09:23;;;;;;;;;25.67;21.67;;;;;21.62;39.79;102202.81;110413;1261;18807;-49
2022/03/14 01:11:50;;;;;;;;;19.00;18.00;;;;;21.62;39.66;102205.17;110505;1262;19525;-49
2022/03/14 01:14:17;;;;;;;;;21.00;20.00;;;;;21.61;39.60;102204.14;110443;1261;18665;-48
2022/03/14 01:16:45;;;;;;;;;21.00;20.00;;;;;21.61;39.67;102198.91;110390;1262;19096;-48
2022/03/14 01:19:12;;;;;;;;;20.67;18.00;;;;;21.61;39.61;102200.34;110429;1261;19449;-48
2022/03/14 01:21:40;;;;;;;;;21.00;18.00;;;;;21.60;39.75;102198.95;109844;1262;684413;-49
2022/03/14 01:24:07;;;;;;;;;19.33;17.00;;;;;21.59;39.66;102207.43;110422;1261;18976;-47
2022/03/14 01:26:34;;;;;;;;;19.00;17.50;;;;;21.60;39.67;102202.29;110464;1261;19655;-49
2022/03/14 01:29:02;;;;;;;;;17.67;17.00;;;;;21.61;39.40;102207.30;110371;1261;19210;-48
2022/03/14 01:31:29;;;;;;;;;22.67;21.00;;;;;21.60;39.53;102209.17;110420;1261;19002;-48
2022/03/14 01:33:57;;;;;;;;;21.00;18.67;;;;;21.60;39.52;102210.58;110423;1261;19747;-47
2022/03/14 01:36:24;;;;;;;;;20.00;17.00;;;;;21.59;39.53;102214.15;110419;1261;18725;-48
2022/03/14 01:38:51;;;;;;;;;17.50;17.00;;;;;21.58;39.55;102217.85;110481;1261;18844;-47
2022/03/14 01:41:18;;;;;;;;;20.33;20.00;;;;;21.58;39.41;102218.23;110433;1262;19526;-48
2022/03/14 01:43:47;;;;;;;;;18.67;17.00;;;;;21.59;39.61;102219.33;110387;1262;23726;-49
2022/03/14 01:46:16;;;;;;;;;21.00;19.33;;;;;21.58;39.40;102219.54;110396;1261;18820;-48
2022/03/14 01:48:44;;;;;;;;;20.67;18.67;;;;;21.54;39.47;102216.08;110337;1262;20177;-48
2022/03/14 01:51:11;;;;;;;;;21.00;20.00;;;;;21.57;39.26;102229.47;110421;1262;22964;-50
2022/03/14 01:53:38;;;;;;;;;18.00;17.00;;;;;21.57;39.29;102227.09;110458;1262;18974;-48
2022/03/14 01:56:06;;;;;;;;;21.00;20.33;;;;;21.57;39.33;102228.50;110385;1262;19475;-48
2022/03/14 01:58:33;;;;;;;;;19.67;17.00;;;;;21.56;39.31;102224.96;110448;1262;19051;-48
2022/03/14 02:01:00;;;;;;;;;18.00;17.00;;;;;21.57;39.15;102226.95;110412;1261;18820;-50
2022/03/14 02:03:27;;;;;;;;;21.33;17.67;;;;;21.57;39.23;102222.92;110426;1261;19654;-49
2022/03/14 02:05:55;;;;;;;;;21.00;20.00;;;;;21.56;39.04;102219.71;110390;1262;20968;-49
2022/03/14 02:08:22;;;;;;;;;20.00;20.00;;;;;21.56;39.19;102219.89;110193;1264;19646;-48
2022/03/14 02:10:49;;;;;;;;;17.33;17.33;;;;;21.56;39.17;102214.77;110380;1261;19469;-47
2022/03/14 02:13:17;;;;;;;;;20.00;18.00;;;;;21.57;39.17;102210.55;110395;1261;18981;-49
2022/03/14 02:15:45;;;;;;;;;21.00;20.00;;;;;21.57;39.03;102208.34;110382;1261;18951;-49
2022/03/14 02:18:12;;;;;;;;;22.00;22.00;;;;;21.57;39.10;102211.81;110381;1262;22411;-49
2022/03/14 02:20:40;;;;;;;;;22.00;18.00;;;;;21.57;39.02;102212.91;110474;1261;18680;-49
2022/03/14 02:23:07;;;;;;;;;21.33;20.00;;;;;21.56;39.03;102210.41;110391;1261;19094;-48
2022/03/14 02:25:34;;;;;;;;;22.67;21.00;;;;;21.57;39.17;102213.05;110365;1262;19538;-48
2022/03/14 02:28:02;;;;;;;;;20.50;19.00;;;;;21.57;38.82;102215.48;110304;1262;18978;-48
2022/03/14 02:30:29;;;;;;;;;24.00;21.00;;;;;21.57;38.99;102218.13;110298;1262;19072;-48
2022/03/14 02:32:58;;;;;;;;;20.00;18.67;;;;;21.57;38.81;102218.70;110335;1262;19577;-48
2022/03/14 02:35:25;;;;;;;;;18.67;17.67;;;;;21.55;38.96;102222.50;110419;1262;18754;-48
2022/03/14 02:37:52;;;;;;;;;21.33;20.00;;;;;21.55;38.95;102226.31;110450;1261;19404;-49
2022/03/14 02:40:19;;;;;;;;;23.67;21.00;;;;;21.57;38.76;102226.55;110393;1261;19526;-47
2022/03/14 02:42:47;;;;;;;;;20.67;20.00;;;;;21.56;38.89;102227.66;110422;1262;19483;-47
2022/03/14 02:45:14;;;;;;;;;24.00;21.00;;;;;21.56;38.84;102230.48;110437;1262;19005;-48
2022/03/14 02:47:42;;;;;;;;;17.00;17.00;;;;;21.56;38.85;102231.51;110450;1261;19792;-49
2022/03/14 02:50:09;;;;;;;;;18.67;17.33;;;;;21.55;38.84;102236.38;110408;1262;19038;-49
2022/03/14 02:52:36;;;;;;;;;18.00;18.00;;;;;21.54;38.78;102234.09;110422;1262;18809;-50
2022/03/14 02:55:03;;;;;;;;;18.00;17.67;;;;;21.54;38.65;102239.71;110419;1262;22271;-48
2022/03/14 02:57:31;;;;;;;;;19.00;18.00;;;;;21.53;38.87;102234.76;110400;1261;18735;-50
2022/03/14 02:59:58;;;;;;;;;17.00;17.00;;;;;21.52;38.73;102233.73;110445;1262;18802;-51
2022/03/14 03:02:26;;;;;;;;;20.33;17.33;;;;;21.52;38.74;102237.75;110404;1261;19459;-49
2022/03/14 03:04:53;;;;;;;;;20.00;18.00;;;;;21.50;38.59;102230.80;110356;1262;18725;-49
2022/03/14 03:07:21;;;;;;;;;20.00;18.00;;;;;21.51;38.71;102232.23;110329;1262;18823;-47
2022/03/14 03:09:49;;;;;;;;;17.00;16.00;;;;;21.51;38.58;102233.34;110424;1261;19548;-50
2022/03/14 03:12:20;;;;;;;;;20.50;20.00;;;;;21.50;38.51;102237.02;110413;1261;18809;-48
2022/03/14 03:14:50;;;;;;;;;21.50;19.00;;;;;21.50;38.66;102238.82;110359;1262;18770;-49
2022/03/14 03:17:18;;;;;;;;;21.00;18.00;;;;;21.51;38.68;102242.79;110353;1261;19562;-48
2022/03/14 03:19:45;;;;;;;;;21.00;18.00;;;;;21.52;38.75;102243.98;110358;1262;18724;-48
2022/03/14 03:22:12;;;;;;;;;20.00;20.00;;;;;21.51;38.59;102246.72;110346;1262;18861;-49
2022/03/14 03:24:40;;;;;;;;;23.67;19.33;;;;;21.52;38.48;102249.02;110296;1262;19656;-49
2022/03/14 03:27:07;;;;;;;;;22.00;21.00;;;;;21.52;38.62;102252.88;110308;1262;18775;-48
2022/03/14 03:29:34;;;;;;;;;20.00;17.33;;;;;21.52;38.55;102257.80;110348;1262;20357;-50
2022/03/14 03:32:01;;;;;;;;;20.00;18.00;;;;;21.52;38.40;102256.30;110340;1261;19796;-48
2022/03/14 03:34:28;;;;;;;;;20.67;18.00;;;;;21.51;38.31;102256.71;110287;1262;19279;-49
2022/03/14 03:36:56;;;;;;;;;20.00;18.00;;;;;21.52;38.37;102261.23;110377;1262;22980;-49
2022/03/14 03:39:23;;;;;;;;;26.00;21.00;;;;;21.51;38.29;102256.74;110400;1261;19723;-48
2022/03/14 03:41:50;;;;;;;;;17.67;17.33;;;;;21.51;38.49;102258.17;110345;1262;18815;-48
2022/03/14 03:44:17;;;;;;;;;21.50;18.00;;;;;21.51;38.40;102258.20;110265;1264;18817;-48
2022/03/14 03:46:45;;;;;;;;;21.33;20.00;;;;;21.52;38.44;102261.39;110259;1264;22020;-47
2022/03/14 03:49:12;;;;;;;;;24.33;20.67;;;;;21.52;38.23;102260.52;110274;1264;20314;-48
2022/03/14 03:51:39;;;;;;;;;20.00;18.33;;;;;21.51;38.38;102261.14;110281;1264;18783;-48
2022/03/14 03:54:07;;;;;;;;;21.00;18.33;;;;;21.51;38.36;102262.20;110223;1264;19597;-47
2022/03/14 03:56:34;;;;;;;;;20.67;18.67;;;;;21.50;38.37;102258.64;110134;1264;23277;-49
2022/03/14 03:59:02;;;;;;;;;20.67;18.67;;;;;21.50;38.14;102263.75;110229;1265;19066;-49
2022/03/14 04:01:30;;;;;;;;;21.50;17.50;;;;;21.50;38.23;102263.91;110254;1264;22816;-52
2022/03/14 04:03:59;;;;;;;;;23.33;20.00;;;;;21.50;38.08;102263.95;110199;1264;18834;-49
2022/03/14 04:06:29;;;;;;;;;20.67;20.00;;;;;21.49;38.22;102262.20;110238;1264;22677;-47
2022/03/14 04:08:56;;;;;;;;;21.33;20.00;;;;;21.48;38.04;102260.31;110314;1265;19563;-47
2022/03/14 04:11:24;;;;;;;;;18.33;17.33;;;;;21.48;38.22;102264.30;110287;1264;20846;-49
2022/03/14 04:13:51;;;;;;;;;24.00;21.00;;;;;21.47;38.19;102263.16;110289;1264;18841;-49
2022/03/14 04:16:18;;;;;;;;;17.00;16.50;;;;;21.48;38.17;102264.90;110250;1265;20898;-49
2022/03/14 04:18:45;;;;;;;;;22.33;20.00;;;;;21.47;38.12;102266.41;110246;1264;18808;-48
2022/03/14 04:21:13;;;;;;;;;22.50;20.50;;;;;21.47;38.01;102266.80;110251;1265;18785;-51
2022/03/14 04:23:40;;;;;;;;;23.50;20.00;;;;;21.47;37.95;102268.44;110319;1265;19568;-49
2022/03/14 04:26:07;;;;;;;;;22.00;21.00;;;;;21.46;38.10;102266.85;110143;1264;18778;-49
2022/03/14 04:28:36;;;;;;;;;21.00;20.00;;;;;21.46;37.97;102263.79;110158;1264;20401;-50
2022/03/14 04:31:03;;;;;;;;;20.00;20.00;;;;;21.46;38.07;102261.05;110266;1264;19785;-48
2022/03/14 04:33:31;;;;;;;;;21.00;18.50;;;;;21.46;37.82;102264.89;110300;1264;18742;-48
2022/03/14 04:35:58;;;;;;;;;28.00;22.00;;;;;21.46;37.95;102260.90;110274;1264;18871;-50
2022/03/14 04:38:25;;;;;;;;;21.00;20.00;;;;;21.46;37.84;102261.77;110269;1264;19380;-47
2022/03/14 04:40:52;;;;;;;;;20.00;18.00;;;;;21.48;37.76;102265.66;110261;1264;18895;-49
2022/03/14 04:43:21;;;;;;;;;20.67;18.67;;;;;21.48;37.85;102264.36;110248;1264;22797;-49
2022/03/14 04:45:48;;;;;;;;;18.00;16.33;;;;;21.46;37.66;102263.23;110248;1264;19652;-49
2022/03/14 04:48:15;;;;;;;;;18.00;17.50;;;;;21.46;37.71;102263.98;110199;1265;18862;-47
2022/03/14 04:50:42;;;;;;;;;19.50;18.00;;;;;21.46;37.78;102264.36;110268;1265;23539;-46
2022/03/14 04:53:10;;;;;;;;;20.67;20.00;;;;;21.46;37.91;102264.50;110273;1264;19583;-47
2022/03/14 04:55:37;;;;;;;;;20.00;20.00;;;;;21.47;37.83;102264.81;110253;1264;18732;-48
2022/03/14 04:58:04;;;;;;;;;20.33;20.00;;;;;21.46;37.72;102265.56;110263;1265;21820;-48
2022/03/14 05:00:32;;;;;;;;;22.33;18.33;;;;;21.47;37.70;102258.84;110265;1265;19605;-47
2022/03/14 05:02:59;;;;;;;;;21.00;19.67;;;;;21.46;37.57;102260.48;110283;1265;18956;-50
2022/03/14 05:05:27;;;;;;;;;20.00;19.00;;;;;21.47;37.65;102262.98;110305;1263;18729;-49
2022/03/14 05:07:54;;;;;;;;;20.67;19.67;;;;;21.45;37.65;102266.57;110243;1262;21814;-48
2022/03/14 05:10:21;;;;;;;;;20.67;19.33;;;;;21.46;37.79;102261.60;110220;1265;18976;-51
2022/03/14 05:12:49;;;;;;;;;18.00;17.50;;;;;21.46;37.83;102263.95;110239;1264;19114;-49
2022/03/14 05:15:16;;;;;;;;;20.67;20.33;;;;;21.46;37.93;102262.55;110254;1264;19638;-52
2022/03/14 05:17:44;;;;;;;;;20.00;18.50;;;;;21.45;37.94;102266.08;110258;1265;19061;-49
2022/03/14 05:20:11;;;;;;;;;23.00;21.00;;;;;21.45;37.87;102268.02;110234;1263;18814;-48
2022/03/14 05:22:38;;;;;;;;;19.67;17.67;;;;;21.47;37.79;102261.34;110237;1264;19525;-48
2022/03/14 05:25:05;;;;;;;;;21.67;20.00;;;;;21.48;37.72;102274.36;110220;1264;22370;-50
2022/03/14 05:27:33;;;;;;;;;23.00;21.33;;;;;21.48;37.78;102278.15;110238;1264;18843;-51
2022/03/14 05:30:00;;;;;;;;;17.00;16.00;;;;;21.48;37.99;102277.42;110239;1264;20125;-48
2022/03/14 05:32:27;;;;;;;;;20.50;18.00;;;;;21.46;37.68;102276.36;110309;1264;23168;-48
2022/03/14 05:34:54;;;;;;;;;24.00;21.00;;;;;21.44;37.76;102280.92;110283;1264;19465;-44
2022/03/14 05:37:22;;;;;;;;;22.67;18.33;;;;;21.44;37.73;102277.65;110180;1264;19590;-48
2022/03/14 05:39:49;;;;;;;;;20.00;19.00;;;;;21.46;37.83;102281.22;110298;1264;18683;-48
2022/03/14 05:42:17;;;;;;;;;21.00;18.00;;;;;21.47;37.72;102279.33;110243;1264;19236;-48
2022/03/14 05:44:44;;;;;;;;;21.67;20.33;;;;;21.50;37.81;102281.44;110272;1264;19519;-52
2022/03/14 05:47:11;;;;;;;;;24.00;20.00;;;;;21.54;37.94;102279.42;110248;1265;18899;-49
2022/03/14 05:49:39;;;;;;;;;18.67;18.00;;;;;21.60;38.10;102274.45;110230;1264;18767;-51
2022/03/14 05:52:07;;;;;;;;;20.00;19.33;;;;;21.67;38.34;102276.79;110215;1265;19413;-49
2022/03/14 05:54:36;;;;;;;;;21.33;20.33;;;;;21.71;38.54;102276.52;110286;1263;18777;-48
2022/03/14 05:57:03;;;;;;;;;24.00;21.33;;;;;21.75;38.54;102276.15;110213;1265;18820;-54
2022/03/14 05:59:30;;;;;;;;;18.67;17.67;;;;;21.75;38.74;102277.08;110194;1264;19790;-51
2022/03/14 06:01:58;;;;;;;;;21.00;20.00;;;;;21.77;38.67;102277.07;110255;1264;22818;-50
2022/03/14 06:04:26;;;;;;;;;23.00;21.00;;;;;21.80;38.88;102282.79;110257;1264;18790;-51
2022/03/14 06:06:53;;;;;;;;;20.00;18.00;;;;;21.78;38.94;102288.36;110140;1264;19528;-50
2022/03/14 06:09:21;;;;;;;;;19.67;19.33;;;;;21.80;39.37;102288.70;110230;1264;19534;-51
2022/03/14 06:11:48;;;;;;;;;17.67;16.00;;;;;21.84;39.36;102290.34;110263;1264;20614;-50
2022/03/14 06:14:15;;;;;;;;;18.00;17.00;;;;;21.85;39.61;102291.54;110195;1264;19480;-51
2022/03/14 06:16:44;;;;;;;;;18.00;17.67;;;;;21.86;39.44;102291.30;110219;1265;19046;-51
2022/03/14 06:19:11;;;;;;;;;18.00;16.50;;;;;21.87;39.38;102292.82;110218;1264;18826;-50
2022/03/14 06:21:39;;;;;;;;;18.00;18.00;;;;;21.88;39.48;102293.60;110229;1265;19517;-50
2022/03/14 06:24:08;;;;;;;;;24.00;21.00;;;;;21.90;39.52;102295.03;110226;1264;19403;-51
2022/03/14 06:26:35;;;;;;;;;20.00;19.00;;;;;21.92;39.49;102295.83;110250;1264;19010;-51
2022/03/14 06:29:03;;;;;;;;;19.33;18.00;;;;;21.93;39.34;102298.02;110215;1264;19645;-50
2022/03/14 06:31:31;;;;;;;;;16.67;16.67;;;;;21.96;39.45;102302.70;110228;1264;18757;-50
2022/03/14 06:33:59;;;;;;;;;21.67;18.67;;;;;21.98;39.32;102303.58;110215;1264;18812;-50
2022/03/14 06:36:26;;;;;;;;;17.67;17.00;;;;;22.02;39.26;102305.24;110223;1264;19780;-50
2022/03/14 06:38:55;;;;;;;;;17.67;16.33;;;;;22.02;39.51;102306.79;110251;1264;18703;-50
2022/03/14 06:41:24;;;;;;;;;21.00;19.67;;;;;22.03;39.36;102310.90;110203;1264;18904;-49
2022/03/14 06:43:53;;;;;;;;;17.67;15.33;;;;;21.99;39.09;102306.39;110198;1264;19652;-49
2022/03/14 06:46:20;;;;;;;;;20.00;17.67;;;;;22.04;39.31;102309.69;110256;1264;20251;-49
2022/03/14 06:48:47;;;;;;;;;25.67;21.00;;;;;22.16;39.26;102313.90;110199;1264;18871;-50
2022/03/14 06:51:15;;;;;;;;;17.67;17.00;;;;;22.21;39.29;102318.13;110280;1264;19539;-53
2022/03/14 06:53:42;;;;;;;;;20.33;17.33;;;;;22.24;39.23;102313.46;110275;1265;23123;-52
2022/03/14 06:56:09;;;;;;;;;21.67;21.00;;;;;22.25;39.36;102310.81;110237;1264;18784;-49
2022/03/14 06:58:36;;;;;;;;;22.00;18.00;;;;;22.25;39.50;102313.09;110244;1264;20367;-49
2022/03/14 07:01:03;;;;;;;;;19.00;18.00;;;;;22.29;39.60;102318.06;110221;1265;18710;-49
2022/03/14 07:03:31;;;;;;;;;21.00;18.67;;;;;22.32;39.70;102316.16;110142;1264;22033;-49
2022/03/14 07:05:58;;;;;;;;;19.33;18.00;;;;;22.33;39.85;102320.61;110288;1264;19329;-50
2022/03/14 07:08:26;;;;;;;;;19.00;18.00;;;;;22.34;39.66;102314.85;110240;1264;18751;-51
2022/03/14 07:10:54;;;;;;;;;19.00;18.00;;;;;22.34;39.24;102310.39;110194;1264;18818;-50
2022/03/14 07:13:21;;;;;;;;;23.33;21.33;;;;;22.32;39.15;102304.15;110150;1264;19772;-50
2022/03/14 07:15:48;;;;;;;;;25.67;22.67;;;;;22.32;38.83;102307.80;110206;1264;18864;-50
2022/03/14 07:18:15;;;;;;;;;21.00;18.00;;;;;22.36;38.89;102321.75;110200;1264;22793;-50
2022/03/14 07:20:43;;;;;;;;;22.33;20.33;;;;;22.38;38.84;102329.23;110313;1265;19454;-51
2022/03/14 07:23:10;;;;;;;;;21.67;19.00;;;;;22.37;38.40;102326.22;110244;1264;20669;-51
2022/03/14 07:25:38;;;;;;;;;22.00;18.67;;;;;22.39;38.53;102328.55;110226;1265;18907;-50
2022/03/14 07:28:06;;;;;;;;;22.50;21.00;;;;;22.41;38.24;102333.86;110263;1264;22393;-49
2022/03/14 07:30:33;;;;;;;;;24.67;23.00;;;;;22.42;38.33;102336.00;110208;1264;18795;-50
2022/03/14 07:33:00;;;;;;;;;22.00;21.00;;;;;22.46;38.09;102333.79;110288;1265;19047;-50
2022/03/14 07:35:27;;;;;;;;;27.00;21.00;;;;;22.48;37.99;102330.29;110230;1263;30269;-50
2022/03/14 07:37:55;;;;;;;;;23.00;22.00;;;;;22.46;38.05;102332.30;110233;1264;18876;-51
2022/03/14 07:40:22;;;;;;;;;25.00;23.00;;;;;22.47;37.87;102332.38;110215;1265;19639;-50
2022/03/14 07:42:49;;;;;;;;;25.00;22.33;;;;;22.48;37.55;102332.81;110134;1263;19781;-51
2022/03/14 07:45:16;;;;;;;;;22.00;20.67;;;;;22.50;37.66;102341.34;110214;1265;22190;-51
2022/03/14 07:47:44;;;;;;;;;25.00;22.33;;;;;22.53;37.54;102340.02;110154;1264;18814;-49
2022/03/14 07:50:13;;;;;;;;;25.00;22.00;;;;;22.53;37.48;102335.29;110148;1264;19469;-52
2022/03/14 07:52:40;;;;;;;;;26.00;24.00;;;;;22.59;37.60;102338.33;110150;1264;19036;-49
2022/03/14 07:55:07;;;;;;;;;25.50;22.00;;;;;22.63;37.33;102333.48;110184;1264;18984;-49
2022/03/14 07:57:35;;;;;;;;;23.00;21.00;;;;;22.67;37.29;102331.52;110272;1264;19590;-49
2022/03/14 08:00:02;;;;;;;;;23.33;22.67;;;;;22.68;37.04;102333.98;110257;1264;22128;-51
2022/03/14 08:02:29;;;;;;;;;26.33;23.67;;;;;22.69;36.89;102336.02;110238;1264;20153;-49
2022/03/14 08:04:57;;;;;;;;;27.67;24.67;;;;;22.71;36.92;102333.11;110200;1264;19506;-51
2022/03/14 08:07:24;;;;;;;;;29.33;27.00;;;;;22.68;36.93;102334.33;110253;1264;18938;-51
2022/03/14 08:09:51;;;;;;;;;30.33;28.00;;;;;22.58;36.77;102325.27;110181;1264;20276;-50
2022/03/14 08:12:20;;;;;;;;;27.33;23.00;;;;;22.52;36.72;102325.83;110227;1264;19447;-52
2022/03/14 08:14:48;;;;;;;;;26.67;24.33;;;;;22.57;36.81;102316.58;110299;1264;18824;-51
2022/03/14 08:17:16;;;;;;;;;25.50;23.00;;;;;22.59;36.87;102311.90;110181;1262;18852;-49
2022/03/14 08:19:43;;;;;;;;;29.33;26.67;;;;;22.59;36.82;102313.51;110361;1260;19402;-51
2022/03/14 08:22:11;;;;;;;;;32.33;27.33;;;;;22.61;36.90;102307.23;110305;1262;18684;-50
2022/03/14 08:24:38;;;;;;;;;24.00;22.67;;;;;22.62;37.01;102306.39;110278;1262;18997;-48
2022/03/14 08:27:06;;;;;;;;;26.67;24.67;;;;;22.64;36.93;102306.47;110453;1262;19668;-51
2022/03/14 08:29:33;;;;;;;;;27.00;23.00;;;;;22.66;36.87;102306.40;110449;1261;22203;-50
2022/03/14 08:32:01;;;;;;;;;25.50;24.00;;;;;22.67;37.02;102311.33;110387;1261;19107;-49
2022/03/14 08:34:28;;;;;;;;;27.67;26.00;;;;;22.62;36.85;102315.15;110336;1262;22139;-50
2022/03/14 08:36:55;;;;;;;;;41.50;36.00;;;;;22.50;35.54;102320.08;110399;1262;18885;-53
2022/03/14 08:39:22;;;;;;;;;39.67;37.67;;;;;22.31;34.14;102319.21;110387;1261;18826;-50
2022/03/14 08:41:49;;;;;;;;;37.33;35.00;;;;;22.15;33.71;102313.84;110376;1262;22815;-49
2022/03/14 08:44:17;;;;;;;;;37.50;35.50;;;;;22.12;33.30;102312.84;110393;1261;19056;-51
2022/03/14 08:46:45;;;;;;;;;46.00;39.50;;;;;22.14;32.80;102307.89;110349;1262;18760;-51
2022/03/14 08:49:12;;;;;;;;;48.33;40.33;;;;;22.07;32.37;102311.13;110363;1261;19520;-51
2022/03/14 08:51:40;;;;;;;;;43.50;39.50;;;;;21.84;31.99;102308.55;110263;1262;23821;-50
2022/03/14 08:54:07;;;;;;;;;50.50;43.00;;;;;21.81;32.00;102297.89;110401;1261;19273;-50
2022/03/14 08:56:35;;;;;;;;;44.00;41.33;;;;;21.86;31.46;102299.46;110439;1262;19470;-50
2022/03/14 08:59:02;;;;;;;;;47.00;42.00;;;;;21.90;31.55;102303.63;110388;1262;18780;-50
2022/03/14 09:01:29;;;;;;;;;58.50;45.50;;;;;21.93;31.00;102297.73;110410;1261;18871;-50
2022/03/14 09:03:56;;;;;;;;;60.00;49.50;;;;;21.91;30.48;102296.04;110394;1262;22309;-50
2022/03/14 09:06:24;;;;;;;;;48.00;42.67;;;;;21.89;30.96;102291.15;110276;1262;18677;-50
2022/03/14 09:08:51;;;;;;;;;45.67;39.00;;;;;22.04;31.30;102289.31;110454;1262;19267;-51
2022/03/14 09:11:19;;;;;;;;;45.33;41.67;;;;;22.19;31.64;102297.20;110383;1262;19657;-51
2022/03/14 09:13:46;;;;;;;;;47.00;39.67;;;;;22.28;31.95;102299.41;110482;1261;18771;-51
2022/03/14 09:16:13;;;;;;;;;39.50;37.00;;;;;22.36;32.15;102292.48;110363;1262;18854;-51
2022/03/14 09:18:41;;;;;;;;;38.00;34.67;;;;;22.40;32.94;102291.48;110333;1261;19673;-50
2022/03/14 09:21:08;;;;;;;;;42.00;38.67;;;;;22.46;33.28;102297.50;110442;1261;18765;-51
2022/03/14 09:23:36;;;;;;;;;42.67;39.67;;;;;22.44;32.93;102304.81;110310;1261;20280;-50
2022/03/14 09:26:03;;;;;;;;;54.50;42.00;;;;;22.28;31.25;102305.48;110198;1262;19478;-49
2022/03/14 09:28:31;;;;;;;;;58.50;45.50;;;;;22.11;30.79;102304.58;110184;1264;22032;-52
2022/03/14 09:30:58;;;;;;;;;48.00;42.33;;;;;21.98;30.38;102302.27;110243;1264;19279;-51
2022/03/14 09:33:25;;;;;;;;;56.50;45.00;;;;;21.99;30.26;102302.63;110250;1264;19687;-51
2022/03/14 09:35:53;;;;;;;;;49.00;43.33;;;;;21.92;29.70;102298.36;110266;1264;19030;-49
2022/03/14 09:38:20;;;;;;;;;51.67;43.33;;;;;21.90;29.73;102291.63;110210;1265;18967;-49
2022/03/14 09:40:48;;;;;;;;;53.33;43.00;;;;;21.90;29.66;102285.48;110211;1264;21563;-51
2022/03/14 09:43:15;;;;;;;;;50.67;43.00;;;;;21.81;28.86;102290.08;110179;1265;19181;-49
2022/03/14 09:45:43;;;;;;;;;54.50;46.00;;;;;21.68;29.07;102294.46;110258;1264;18817;-48
2022/03/14 09:48:11;;;;;;;;;51.67;43.33;;;;;21.60;29.12;102288.85;110181;1264;19536;-49
2022/03/14 09:50:38;;;;;;;;;50.67;42.00;;;;;21.62;29.02;102291.77;110279;1264;18668;-49
2022/03/14 09:53:06;;;;;;;;;49.00;42.67;;;;;21.67;29.12;102287.45;110235;1264;18914;-51
2022/03/14 09:55:35;;;;;;;;;57.00;46.00;;;;;21.71;29.04;102286.19;110209;1264;19598;-51
2022/03/14 09:58:03;;;;;;;;;52.50;43.50;;;;;21.71;28.76;102286.02;110157;1264;18740;-51
2022/03/14 10:00:30;;;;;;;;;48.33;42.00;;;;;21.70;29.13;102286.64;110181;1265;18801;-51
2022/03/14 10:02:57;;;;;;;;;53.67;44.00;;;;;21.77;28.93;102290.83;110200;1264;21311;-50
2022/03/14 10:05:25;;;;;;;;;59.33;43.67;;;;;21.77;28.88;102285.98;110221;1264;18798;-52
2022/03/14 10:07:52;;;;;;;;;56.00;45.00;;;;;21.75;28.71;102286.84;110252;1263;18926;-50
2022/03/14 10:10:19;;;;;;;;;48.33;42.00;;;;;21.65;28.62;102288.04;110205;1264;19567;-50
2022/03/14 10:12:53;;;;;;;;;54.67;44.00;;;;;21.67;28.74;102288.55;110201;1263;19665;-50
2022/03/14 10:15:21;;;;;;;;;51.00;42.67;;;;;21.65;28.32;102281.60;110151;1264;19002;-48
2022/03/14 10:17:48;;;;;;;;;55.00;43.50;;;;;21.63;28.31;102274.53;110137;1264;21189;-50
2022/03/14 10:20:16;;;;;;;;;46.50;42.50;;;;;21.44;27.87;102279.62;110183;1264;18826;-49
2022/03/14 10:22:44;;;;;;;;;51.67;42.33;;;;;20.96;27.74;102279.38;110166;1264;18996;-50
2022/03/14 10:25:11;;;;;;;;;51.50;43.50;;;;;21.11;28.74;102280.69;110160;1264;19528;-49
2022/03/14 10:27:39;;;;;;;;;49.00;39.67;;;;;21.38;28.52;102283.45;110251;1264;18712;-51
2022/03/14 10:30:06;;;;;;;;;46.50;41.50;;;;;21.60;28.80;102277.35;110313;1264;19194;-51
2022/03/14 10:32:36;;;;;;;;;47.00;40.00;;;;;21.76;29.14;102278.95;110263;1264;21405;-51
2022/03/14 10:35:04;;;;;;;;;42.00;38.00;;;;;21.86;29.71;102277.05;110255;1264;20962;-50
2022/03/14 10:37:31;;;;;;;;;42.33;37.00;;;;;21.91;29.52;102276.04;110238;1264;18844;-49
2022/03/14 10:39:59;;;;;;;;;40.00;34.00;;;;;21.97;29.86;102273.98;110264;1264;19627;-50
2022/03/14 10:42:26;;;;;;;;;39.50;36.50;;;;;22.02;30.04;102274.80;110233;1263;18854;-50
2022/03/14 10:44:54;;;;;;;;;34.00;33.50;;;;;22.07;30.46;102276.63;110297;1264;18923;-48
2022/03/14 10:47:21;;;;;;;;;32.00;30.00;;;;;22.09;30.54;102278.65;110252;1263;19600;-51
2022/03/14 10:49:48;;;;;;;;;40.00;36.00;;;;;22.10;30.69;102277.50;110376;1262;18833;-49
2022/03/14 10:52:17;;;;;;;;;37.67;33.33;;;;;22.11;31.04;102273.39;110324;1262;18889;-48
2022/03/14 10:54:44;;;;;;;;;33.00;30.33;;;;;22.12;31.29;102266.38;110230;1262;19916;-51
2022/03/14 10:57:11;;;;;;;;;39.00;35.67;;;;;22.11;31.63;102262.64;110334;1261;23570;-51
2022/03/14 10:59:38;;;;;;;;;35.00;31.33;;;;;22.10;31.63;102260.36;110436;1261;22858;-52
2022/03/14 11:02:06;;;;;;;;;28.00;26.00;;;;;22.06;31.64;102263.48;110382;1261;19528;-49